Time;durP1;ratioP1;P1;durP2;ratioP2;P2;SDS_P1;SDS_P2;PMS_P1;PMS_P2;Temp;Humidity;BMP_temperature;BMP_pressure;BME280_temperature;BME280_humidity;BME280_pressure;Samples;Min_cycle;Max_cycle;Signal;HPM_P1;HPM_P2
2021/05/01 00:00:32;;;;;;;14.05;10.20;;;;;;;8.27;100.00;100537.53;5233635;28;20096;-81
2021/05/01 00:03:03;;;;;;;16.42;11.13;;;;;;;8.22;100.00;100528.13;5214488;28;20036;-81
2021/05/01 00:05:33;;;;;;;16.27;10.82;;;;;;;8.16;100.00;100534.31;5239149;28;20088;-81
2021/05/01 00:08:04;;;;;;;15.30;10.68;;;;;;;8.22;100.00;100525.50;5235454;28;20108;-81
2021/05/01 00:10:34;;;;;;;16.63;13.23;;;;;;;8.23;100.00;100530.66;5237193;28;20050;-81
2021/05/01 00:13:04;;;;;;;16.05;12.40;;;;;;;8.29;100.00;100521.84;5226195;28;20074;-81
2021/05/01 00:15:36;;;;;;;17.73;12.55;;;;;;;8.30;100.00;100520.94;5241984;28;20024;-81
2021/05/01 00:18:06;;;;;;;15.73;10.98;;;;;;;8.49;100.00;100516.94;5245573;28;20028;-81
2021/05/01 00:20:36;;;;;;;12.30;10.05;;;;;;;8.36;100.00;100521.63;5237114;28;20017;-81
2021/05/01 00:23:06;;;;;;;11.48;9.73;;;;;;;8.29;100.00;100521.84;5222331;28;20064;-81
2021/05/01 00:25:37;;;;;;;11.55;8.50;;;;;;;8.34;100.00;100512.16;5224099;28;20028;-81
2021/05/01 00:28:07;;;;;;;10.75;8.07;;;;;;;8.27;100.00;100515.81;5236373;28;20028;-81
2021/05/01 00:30:39;;;;;;;9.68;8.00;;;;;;;8.24;100.00;100519.34;5237686;28;20029;-81
2021/05/01 00:33:09;;;;;;;9.98;7.32;;;;;;;8.30;100.00;100519.22;5237533;28;20088;-80
2021/05/01 00:35:42;;;;;;;12.82;10.10;;;;;;;8.24;100.00;100516.75;5218246;28;20056;-80
2021/05/01 00:38:13;;;;;;;12.80;9.15;;;;;;;8.36;100.00;100511.22;5240506;28;20086;-80
2021/05/01 00:40:43;;;;;;;16.15;9.82;;;;;;;8.21;100.00;100511.63;5223644;28;20367;-80
2021/05/01 00:43:13;;;;;;;15.25;10.68;;;;;;;8.07;100.00;100505.91;5225784;28;20047;-80
2021/05/01 00:45:44;;;;;;;17.38;11.82;;;;;;;8.12;100.00;100503.19;5234145;28;20021;-81
2021/05/01 00:48:14;;;;;;;11.68;8.63;;;;;;;7.95;100.00;100503.66;5226554;28;20238;-81
2021/05/01 00:50:44;;;;;;;16.05;10.13;;;;;;;8.00;100.00;100495.69;5227231;28;20023;-81
2021/05/01 00:53:15;;;;;;;13.43;9.35;;;;;;;8.14;100.00;100491.84;5225048;28;20024;-81
2021/05/01 00:55:45;;;;;;;16.23;11.40;;;;;;;8.03;100.00;100488.66;5226006;28;20086;-78
2021/05/01 00:58:16;;;;;;;16.10;12.57;;;;;;;8.13;100.00;100491.88;5224907;28;20024;-79
2021/05/01 01:03:36;;;;;;;14.85;10.68;;;;;;;8.14;100.00;100489.25;5251601;28;20043;-81
2021/05/01 01:06:08;;;;;;;15.15;11.25;;;;;;;8.17;100.00;100489.16;5223405;28;20024;-79
2021/05/01 01:08:38;;;;;;;17.15;11.55;;;;;;;8.18;100.00;100498.72;5227671;28;20112;-79
2021/05/01 01:11:09;;;;;;;14.88;12.00;;;;;;;8.12;100.00;100496.25;5248581;28;20140;-79
2021/05/01 01:13:40;;;;;;;15.88;12.45;;;;;;;8.12;100.00;100496.25;5229719;28;20032;-78
2021/05/01 01:16:11;;;;;;;17.15;12.55;;;;;;;8.12;100.00;100500.59;5243772;28;20028;-78
2021/05/01 01:18:41;;;;;;;17.52;13.50;;;;;;;8.13;100.00;100497.94;5246229;28;20044;-80
2021/05/01 01:21:11;;;;;;;15.55;13.40;;;;;;;8.22;100.00;100496.88;5229990;28;20096;-77
2021/05/01 01:23:41;;;;;;;18.63;14.00;;;;;;;8.22;100.00;100496.88;5255231;28;20043;-77
2021/05/01 01:26:12;;;;;;;19.38;13.80;;;;;;;8.00;100.00;100491.34;5255173;28;20028;-77
2021/05/01 01:28:44;;;;;;;15.98;11.55;;;;;;;7.83;100.00;100493.53;5254956;28;20028;-80
2021/05/01 01:31:14;;;;;;;12.73;10.13;;;;;;;7.87;100.00;100495.16;5237807;28;20028;-78
2021/05/01 01:33:45;;;;;;;16.20;12.73;;;;;;;7.76;100.00;100493.75;5235946;28;20044;-79
2021/05/01 01:36:15;;;;;;;16.67;13.45;;;;;;;7.74;100.00;100491.16;5235545;28;20100;-78
2021/05/01 01:38:45;;;;;;;17.45;12.68;;;;;;;7.74;100.00;100485.13;5233849;28;20012;-79
2021/05/01 01:41:16;;;;;;;18.20;13.52;;;;;;;7.69;100.00;100485.25;5237496;28;20033;-78
2021/05/01 01:43:46;;;;;;;25.50;17.13;;;;;;;7.72;100.00;100482.56;5233867;28;20025;-77
2021/05/01 01:46:16;;;;;;;19.05;15.45;;;;;;;7.92;100.00;100485.53;5252496;28;20033;-79
2021/05/01 01:48:47;;;;;;;20.13;15.43;;;;;;;7.95;100.00;100488.03;5233737;28;20024;-78
2021/05/01 01:51:17;;;;;;;22.85;17.33;;;;;;;8.07;100.00;100477.28;5245129;28;20037;-78
2021/05/01 01:53:47;;;;;;;20.63;16.33;;;;;;;8.18;100.00;100474.44;5236250;28;20036;-79
2021/05/01 01:56:18;;;;;;;20.30;16.13;;;;;;;8.20;100.00;100488.25;5242750;28;20060;-79
2021/05/01 01:58:48;;;;;;;22.38;16.10;;;;;;;8.15;100.00;100490.94;5224112;28;20024;-80
2021/05/01 02:01:19;;;;;;;19.30;15.55;;;;;;;8.11;100.00;100486.72;5226772;28;20555;-79
2021/05/01 02:03:50;;;;;;;22.38;16.85;;;;;;;8.13;100.00;100481.47;5225680;28;20040;-81
2021/05/01 02:06:20;;;;;;;19.40;16.20;;;;;;;8.22;100.00;100481.25;5241222;28;20029;-80
2021/05/01 02:08:51;;;;;;;24.73;17.00;;;;;;;8.17;100.00;100473.53;5239956;28;20487;-80
2021/05/01 02:11:21;;;;;;;21.80;17.88;;;;;;;8.09;100.00;100475.50;5215073;28;20037;-77
2021/05/01 02:13:51;;;;;;;19.58;16.85;;;;;;;8.08;100.00;100471.16;5216884;28;20098;-78
2021/05/01 02:16:22;;;;;;;20.27;16.88;;;;;;;7.97;100.00;100481.03;5220615;28;20024;-79
2021/05/01 02:18:52;;;;;;;22.63;17.35;;;;;;;7.97;100.00;100481.03;5244584;28;20036;-78
2021/05/01 02:21:22;;;;;;;22.73;17.77;;;;;;;8.05;100.00;100476.47;5224061;28;20047;-80
2021/05/01 02:23:53;;;;;;;22.27;18.45;;;;;;;7.95;100.00;100468.94;5224853;28;20032;-80
2021/05/01 02:26:23;;;;;;;22.48;17.80;;;;;;;8.09;100.00;100474.66;5225165;28;20078;-80
2021/05/01 02:28:54;;;;;;;23.35;17.92;;;;;;;8.26;100.00;100468.13;5241994;28;20024;-78
2021/05/01 02:31:24;;;;;;;21.65;17.60;;;;;;;8.24;100.00;100464.69;5220187;28;20021;-78
2021/05/01 02:33:55;;;;;;;22.20;17.23;;;;;;;8.38;100.00;100459.94;5226607;28;20553;-77
2021/05/01 02:36:25;;;;;;;21.27;16.40;;;;;;;8.48;100.00;100458.81;5244172;28;20146;-80
2021/05/01 02:38:55;;;;;;;21.52;16.50;;;;;;;8.59;100.00;100451.50;5223862;28;20036;-79
2021/05/01 02:41:26;;;;;;;21.15;17.48;;;;;;;8.55;100.00;100449.06;5238643;28;20020;-80
2021/05/01 02:43:56;;;;;;;23.02;18.25;;;;;;;8.34;100.00;100455.72;5220479;28;20119;-78
2021/05/01 02:46:27;;;;;;;23.48;19.40;;;;;;;8.10;100.00;100451.19;5225670;28;20020;-78
2021/05/01 02:48:57;;;;;;;24.08;20.10;;;;;;;8.23;100.00;100451.72;5225573;28;20029;-79
2021/05/01 02:51:27;;;;;;;24.00;20.70;;;;;;;8.17;100.00;100447.50;5225138;28;20584;-80
2021/05/01 02:53:58;;;;;;;32.17;21.55;;;;;;;8.06;100.00;100446.94;5222279;28;20035;-79
2021/05/01 02:56:28;;;;;;;25.92;20.67;;;;;;;8.16;100.00;100445.81;5226193;28;20024;-79
2021/05/01 02:58:59;;;;;;;28.08;21.35;;;;;;;8.38;100.00;100446.94;5226557;28;20494;-80
2021/05/01 03:01:29;;;;;;;27.75;22.00;;;;;;;8.47;100.00;100449.28;5218979;28;20048;-79
2021/05/01 03:03:59;;;;;;;27.30;22.05;;;;;;;8.36;100.00;100435.72;5230192;28;20021;-79
2021/05/01 03:06:30;;;;;;;28.35;22.15;;;;;;;8.16;100.00;100432.78;5218750;28;20027;-80
2021/05/01 03:09:00;;;;;;;30.13;23.42;;;;;;;8.03;100.00;100436.63;5220592;28;20696;-80
2021/05/01 03:11:30;;;;;;;31.20;24.08;;;;;;;7.98;100.00;100430.69;5217269;28;20023;-79
2021/05/01 03:14:01;;;;;;;32.42;24.63;;;;;;;7.97;100.00;100439.41;5222781;28;20056;-79
2021/05/01 03:16:31;;;;;;;30.08;24.83;;;;;;;7.94;100.00;100436.03;5236945;28;20383;-79
2021/05/01 03:19:01;;;;;;;31.65;23.77;;;;;;;8.11;100.00;100426.88;5221210;28;20028;-80
2021/05/01 03:21:32;;;;;;;30.33;23.63;;;;;;;8.09;100.00;100433.88;5239392;28;20028;-78
2021/05/01 03:24:03;;;;;;;33.28;24.33;;;;;;;7.98;100.00;100433.31;5224238;28;20020;-80
2021/05/01 03:26:33;;;;;;;31.13;24.27;;;;;;;7.95;100.00;100430.78;5233611;28;20024;-81
2021/05/01 03:29:04;;;;;;;32.15;25.23;;;;;;;7.96;100.00;100431.63;5241101;28;20070;-79
2021/05/01 03:31:35;;;;;;;29.33;24.15;;;;;;;7.96;100.00;100427.28;5217301;28;20021;-79
2021/05/01 03:34:05;;;;;;;33.53;25.38;;;;;;;7.87;100.00;100427.53;5240161;28;20032;-79
2021/05/01 03:36:35;;;;;;;32.53;26.08;;;;;;;7.79;100.00;100429.50;5243348;28;20097;-78
2021/05/01 03:39:06;;;;;;;33.33;26.73;;;;;;;7.85;100.00;100426.72;5223678;28;20483;-77
2021/05/01 03:41:36;;;;;;;33.30;26.02;;;;;;;7.78;100.00;100427.78;5229632;28;20024;-78
2021/05/01 03:44:07;;;;;;;31.70;25.35;;;;;;;7.84;100.00;100427.63;5243829;28;20025;-79
2021/05/01 03:46:37;;;;;;;35.60;27.30;;;;;;;7.86;100.00;100427.59;5230222;28;20017;-80
2021/05/01 03:49:07;;;;;;;32.80;25.52;;;;;;;7.89;100.00;100430.94;5247874;28;20090;-81
2021/05/01 03:51:38;;;;;;;33.10;25.73;;;;;;;7.87;100.00;100427.53;5229260;28;20024;-80
2021/05/01 03:54:08;;;;;;;33.17;25.88;;;;;;;7.86;100.00;100419.78;5223079;28;20032;-80
2021/05/01 03:56:39;;;;;;;36.45;27.85;;;;;;;7.80;100.00;100431.19;5223064;28;20024;-80
2021/05/01 03:59:09;;;;;;;30.67;25.30;;;;;;;7.78;100.00;100429.53;5223229;28;20091;-80
2021/05/01 04:01:40;;;;;;;31.20;24.75;;;;;;;7.84;100.00;100426.78;5220917;28;20031;-80
2021/05/01 04:04:11;;;;;;;28.85;24.10;;;;;;;7.75;100.00;100427.00;5241290;28;20444;-80
2021/05/01 04:06:41;;;;;;;26.52;21.42;;;;;;;7.67;100.00;100428.97;5237343;28;20063;-80
2021/05/01 04:09:11;;;;;;;28.55;22.90;;;;;;;7.70;100.00;100423.69;5240552;28;20040;-80
2021/05/01 04:11:42;;;;;;;24.20;19.98;;;;;;;7.78;100.00;100426.91;5218981;28;20087;-79
2021/05/01 04:14:12;;;;;;;21.92;17.98;;;;;;;7.91;100.00;100428.31;5221260;28;20560;-79
2021/05/01 04:16:42;;;;;;;23.30;19.35;;;;;;;7.84;100.00;100432.81;5217485;28;20371;-80
2021/05/01 04:19:13;;;;;;;25.90;20.27;;;;;;;7.81;100.00;100427.72;5222041;28;20029;-80
2021/05/01 04:21:44;;;;;;;27.40;20.27;;;;;;;7.77;100.00;100420.88;5218033;28;20028;-80
2021/05/01 04:24:14;;;;;;;26.60;21.35;;;;;;;7.55;100.00;100422.31;5222584;28;20059;-80
2021/05/01 04:26:44;;;;;;;26.10;21.23;;;;;;;7.57;100.00;100433.56;5225578;28;20020;-80
2021/05/01 04:29:14;;;;;;;28.35;22.23;;;;;;;7.69;100.00;100432.38;5237412;28;20520;-80
2021/05/01 04:31:45;;;;;;;27.38;21.95;;;;;;;7.89;100.00;100437.91;5227575;28;20031;-80
2021/05/01 04:34:18;;;;;;;24.85;19.95;;;;;;;7.94;100.00;100439.50;5237123;28;20099;-81
2021/05/01 04:36:48;;;;;;;25.27;19.58;;;;;;;7.88;100.00;100437.03;5220337;28;20032;-81
2021/05/01 04:39:18;;;;;;;22.67;19.10;;;;;;;7.89;100.00;100435.31;5222560;28;20029;-81
2021/05/01 04:41:49;;;;;;;29.17;21.77;;;;;;;7.78;100.00;100435.59;5229938;28;20625;-81
2021/05/01 04:44:21;;;;;;;27.80;21.63;;;;;;;7.80;100.00;100441.59;5220290;28;20066;-81
2021/05/01 04:46:52;;;;;;;28.75;21.38;;;;;;;7.83;100.00;100436.31;5219916;28;20029;-81
2021/05/01 04:49:23;;;;;;;26.10;21.02;;;;;;;7.87;100.00;100439.69;5219698;28;20546;-81
2021/05/01 04:51:53;;;;;;;26.50;21.52;;;;;;;7.89;100.00;100440.50;5220577;28;20029;-81
2021/05/01 04:54:24;;;;;;;24.77;21.00;;;;;;;8.00;100.00;100428.91;5219976;28;20055;-81
2021/05/01 04:56:54;;;;;;;25.00;20.85;;;;;;;8.06;100.00;100433.94;5220317;28;20476;-81
2021/05/01 04:59:24;;;;;;;26.27;20.85;;;;;;;8.00;100.00;100428.03;5221338;28;20032;-81
2021/05/01 05:01:55;;;;;;;25.20;20.65;;;;;;;8.04;100.00;100433.13;5236507;28;20510;-82
2021/05/01 05:04:25;;;;;;;28.23;21.48;;;;;;;7.95;100.00;100435.13;5236544;28;20039;-82
2021/05/01 05:06:56;;;;;;;25.00;21.38;;;;;;;7.97;100.00;100447.22;5239506;28;20039;-81
2021/05/01 05:09:26;;;;;;;30.77;22.58;;;;;;;8.00;100.00;100448.84;5225476;28;20067;-81
2021/05/01 05:11:56;;;;;;;27.40;22.23;;;;;;;8.02;100.00;100452.31;5221322;28;20020;-81
2021/05/01 05:14:26;;;;;;;26.60;21.70;;;;;;;8.05;100.00;100452.22;5219765;28;20107;-81
2021/05/01 05:16:57;;;;;;;27.98;21.95;;;;;;;8.17;100.00;100457.94;5239032;28;20112;-81
2021/05/01 05:19:27;;;;;;;27.13;21.60;;;;;;;8.18;100.00;100464.03;5219029;28;20036;-81
2021/05/01 05:21:57;;;;;;;27.02;20.92;;;;;;;8.40;100.00;100465.13;5216657;28;20029;-82
2021/05/01 05:24:28;;;;;;;27.20;20.58;;;;;;;8.31;100.00;100462.75;5239132;28;20025;-81
2021/05/01 05:26:58;;;;;;;26.02;21.40;;;;;;;8.23;100.00;100462.97;5220743;28;20046;-82
2021/05/01 05:29:28;;;;;;;28.10;21.55;;;;;;;8.33;100.00;100464.44;5222200;28;20066;-81
2021/05/01 05:31:59;;;;;;;29.85;21.85;;;;;;;8.17;100.00;100460.53;5220277;28;20024;-81
2021/05/01 05:34:30;;;;;;;28.73;21.13;;;;;;;8.27;100.00;100468.97;5234724;28;20028;-81
2021/05/01 05:37:01;;;;;;;27.05;20.92;;;;;;;8.15;100.00;100461.44;5239534;28;20040;-81
2021/05/01 05:39:31;;;;;;;28.15;20.88;;;;;;;8.15;100.00;100458.84;5236365;28;20048;-81
2021/05/01 05:42:02;;;;;;;26.63;20.95;;;;;;;8.16;100.00;100471.84;5239521;28;20020;-82
2021/05/01 05:44:33;;;;;;;31.77;22.48;;;;;;;8.08;100.00;100472.94;5239655;28;20020;-81
2021/05/01 05:47:03;;;;;;;29.42;21.67;;;;;;;8.04;100.00;100466.97;5219103;28;20188;-81
2021/05/01 05:49:34;;;;;;;30.27;22.48;;;;;;;8.10;100.00;100466.81;5238365;28;20172;-81
2021/05/01 05:52:04;;;;;;;26.52;21.42;;;;;;;8.34;100.00;100471.34;5234642;28;20082;-82
2021/05/01 05:54:36;;;;;;;30.38;22.27;;;;;;;8.42;100.00;100469.38;5216134;28;20121;-81
2021/05/01 05:57:10;;;;;;;27.73;21.40;;;;;;;8.42;100.00;100473.75;5241420;28;20024;-81
2021/05/01 05:59:42;;;;;;;28.85;21.13;;;;;;;8.40;100.00;100480.75;5220790;28;20668;-81
2021/05/01 06:02:21;;;;;;;29.45;21.92;;;;;;;8.40;100.00;100475.53;5232283;28;20032;-81
2021/05/01 06:04:59;;;;;;;28.65;21.98;;;;;;;8.49;100.00;100472.66;5220178;28;20032;-81
2021/05/01 06:07:34;;;;;;;32.35;21.67;;;;;;;8.51;100.00;100473.47;5216876;28;20071;-81
2021/05/01 06:10:06;;;;;;;29.48;20.20;;;;;;;8.57;100.00;100468.94;5221588;28;20056;-81
2021/05/01 06:12:37;;;;;;;27.25;20.60;;;;;;;8.68;100.00;100459.06;5237801;28;20032;-81
2021/05/01 06:15:12;;;;;;;26.23;20.80;;;;;;;8.68;100.00;100466.00;5238015;28;20082;-81
2021/05/01 06:17:44;;;;;;;24.80;19.75;;;;;;;8.77;100.00;100470.97;5220491;28;20025;-81
2021/05/01 06:20:15;;;;;;;25.83;19.45;;;;;;;9.02;100.00;100467.56;5235332;28;20040;-81
2021/05/01 06:22:50;;;;;;;26.23;21.00;;;;;;;8.98;100.00;100468.56;5217325;28;20024;-81
2021/05/01 06:25:24;;;;;;;23.02;19.15;;;;;;;9.17;100.00;100467.09;5217240;28;20036;-82
2021/05/01 06:27:54;;;;;;;25.98;20.05;;;;;;;9.23;100.00;100464.28;5242756;28;20025;-81
2021/05/01 06:30:25;;;;;;;25.45;19.55;;;;;;;9.24;100.00;100466.84;5236952;28;20332;-81
2021/05/01 06:33:00;;;;;;;25.30;20.00;;;;;;;9.46;100.00;100467.00;5218205;28;20119;-81
2021/05/01 06:35:31;;;;;;;;;;;;;;;9.52;100.00;100474.63;5213413;28;20028;-82
2021/05/01 06:38:01;;;;;;;25.05;20.63;;;;;;;9.54;100.00;100478.03;5220274;28;19920;-82
2021/05/01 06:40:34;;;;;;;22.92;18.50;;;;;;;9.47;100.00;100466.94;5237729;28;20028;-81
2021/05/01 06:43:19;;;;;;;23.98;19.05;;;;;;;9.55;100.00;100474.53;5219019;28;20029;-82
2021/05/01 06:45:51;;;;;;;27.75;20.23;;;;;;;9.59;100.00;100470.91;5216759;28;20067;-81
2021/05/01 06:48:25;;;;;;;24.85;19.67;;;;;;;9.69;100.00;100473.16;5236917;28;20024;-81
2021/05/01 06:51:02;;;;;;;25.63;19.80;;;;;;;9.68;100.00;100466.22;5220708;28;20054;-81
2021/05/01 06:53:34;;;;;;;24.67;18.30;;;;;;;10.14;98.97;100461.16;5227521;28;20548;-82
2021/05/01 06:56:05;;;;;;;22.00;18.27;;;;;;;10.25;97.18;100463.38;5210045;28;20016;-82
2021/05/01 06:58:36;;;;;;;24.98;18.77;;;;;;;10.65;95.91;100459.25;5232065;28;20047;-82
2021/05/01 07:01:10;;;;;;;21.05;18.02;;;;;;;10.54;96.30;100471.84;5232467;28;20311;-81
2021/05/01 07:03:43;;;;;;;24.00;18.48;;;;;;;10.60;93.51;100463.81;5237554;28;20032;-82
2021/05/01 07:06:16;;;;;;;23.02;18.15;;;;;;;10.78;94.08;100473.56;5223809;28;20028;-81
2021/05/01 07:08:46;;;;;;;25.02;17.88;;;;;;;10.69;93.36;100473.06;5232786;28;20028;-81
2021/05/01 07:11:16;;;;;;;22.63;17.75;;;;;;;10.66;93.36;100473.19;5221875;28;20091;-82
2021/05/01 07:13:48;;;;;;;21.17;17.48;;;;;;;10.72;92.67;100476.41;5229438;28;20024;-81
2021/05/01 07:16:19;;;;;;;22.10;18.20;;;;;;;10.65;93.68;100489.78;5242862;28;20028;-81
2021/05/01 07:18:49;;;;;;;22.02;18.63;;;;;;;10.99;91.61;100479.75;5225253;28;20078;-81
2021/05/01 07:21:20;;;;;;;23.52;18.30;;;;;;;10.94;91.49;100476.44;5233645;28;20040;-81
2021/05/01 07:23:51;;;;;;;22.60;18.02;;;;;;;11.43;92.26;100472.69;5240835;28;20028;-81
2021/05/01 07:26:22;;;;;;;20.33;17.45;;;;;;;11.53;89.31;100468.78;5226252;28;20501;-81
2021/05/01 07:28:53;;;;;;;20.10;17.05;;;;;;;12.80;85.38;100451.78;5244807;28;20058;-82
2021/05/01 07:31:27;;;;;;;19.60;16.30;;;;;;;13.65;80.99;100446.75;5226472;28;20029;-81
2021/05/01 07:33:58;;;;;;;18.52;14.80;;;;;;;15.47;75.33;100436.75;5221915;28;20071;-81
2021/05/01 07:36:49;;;;;;;17.65;14.57;;;;;;;15.40;73.51;100435.41;5226107;28;20288;-82
2021/05/01 07:39:20;;;;;;;18.98;15.40;;;;;;;14.10;76.75;100445.25;5243706;28;20035;-82
2021/05/01 07:41:58;;;;;;;18.58;14.07;;;;;;;14.51;75.49;100432.56;5240234;28;20418;-82
2021/05/01 07:44:33;;;;;;;20.73;15.45;;;;;;;13.78;79.38;100432.06;5244092;28;20036;-82
2021/05/01 07:47:03;;;;;;;17.52;14.77;;;;;;;14.92;77.86;100427.63;5223151;28;20024;-82
2021/05/01 07:49:37;;;;;;;17.10;14.50;;;;;;;16.82;67.72;100418.72;5226878;28;20036;-83
2021/05/01 07:52:09;;;;;;;16.42;13.60;;;;;;;17.94;65.50;100420.06;5229202;28;20077;-82
2021/05/01 07:54:42;;;;;;;18.75;13.25;;;;;;;18.79;64.18;100398.97;5230667;28;20020;-82
2021/05/01 07:57:12;;;;;;;16.35;12.95;;;;;;;19.05;60.59;100408.53;5224662;28;20029;-83
2021/05/01 07:59:43;;;;;;;13.60;12.13;;;;;;;19.40;59.46;100401.53;5228109;28;20030;-83
2021/05/01 08:02:13;;;;;;;13.90;12.40;;;;;;;19.58;60.00;100404.63;5229948;28;20033;-83
2021/05/01 08:04:43;;;;;;;13.35;11.95;;;;;;;19.62;59.44;100391.00;5229837;28;20321;-83
2021/05/01 08:07:14;;;;;;;14.18;12.13;;;;;;;19.06;61.22;100396.97;5238675;28;20040;-83
2021/05/01 08:09:44;;;;;;;12.60;11.30;;;;;;;20.45;59.57;100388.03;5231526;28;20107;-83
2021/05/01 08:12:15;;;;;;;14.52;11.52;;;;;;;21.43;54.53;100378.19;5223103;28;20079;-83
2021/05/01 08:14:46;;;;;;;12.93;11.63;;;;;;;20.37;57.01;100387.78;5224068;28;20018;-83
2021/05/01 08:17:16;;;;;;;11.88;10.68;;;;;;;21.23;55.84;100377.16;5218751;28;20115;-83
2021/05/01 08:19:46;;;;;;;14.00;10.32;;;;;;;21.04;55.85;100376.16;5224381;28;20038;-84
2021/05/01 08:22:17;;;;;;;11.60;10.40;;;;;;;22.06;55.27;100367.47;5225019;28;20024;-83
2021/05/01 08:24:47;;;;;;;12.27;10.27;;;;;;;22.27;53.88;100362.94;5224305;28;20129;-83
2021/05/01 08:27:17;;;;;;;13.35;11.02;;;;;;;21.76;53.23;100372.72;5220411;28;20310;-83
2021/05/01 08:29:48;;;;;;;12.88;11.23;;;;;;;22.19;54.99;100362.72;5235215;28;20035;-84
2021/05/01 08:32:18;;;;;;;13.65;11.40;;;;;;;21.99;54.18;100368.94;5222018;28;20037;-83
2021/05/01 08:34:48;;;;;;;12.85;11.45;;;;;;;21.55;55.05;100371.84;5241271;28;20040;-83
2021/05/01 08:37:19;;;;;;;15.52;11.95;;;;;;;21.24;54.46;100368.22;5225537;28;20032;-84
2021/05/01 08:39:49;;;;;;;11.32;10.20;;;;;;;21.72;53.59;100366.81;5218103;28;20082;-83
2021/05/01 08:42:19;;;;;;;13.50;12.00;;;;;;;18.13;61.02;100381.69;5222949;28;20040;-83
2021/05/01 08:44:50;;;;;;;15.43;12.02;;;;;;;19.64;57.77;100373.16;5221295;28;20025;-83
2021/05/01 08:47:21;;;;;;;14.45;11.40;;;;;;;21.27;55.67;100362.63;5225170;28;20409;-83
2021/05/01 08:49:51;;;;;;;13.70;12.05;;;;;;;20.62;55.37;100366.28;5221089;28;20112;-84
2021/05/01 08:52:21;;;;;;;11.95;10.27;;;;;;;21.32;54.23;100365.78;5216131;28;20112;-84
2021/05/01 08:54:52;;;;;;;12.70;11.32;;;;;;;21.60;53.87;100361.66;5218440;28;20028;-84
2021/05/01 08:57:30;;;;;;;11.33;10.13;;;;;;;21.61;53.71;100360.69;5222526;28;20108;-83
2021/05/01 09:00:00;;;;;;;12.20;10.50;;;;;;;23.15;51.12;100350.47;5234214;28;20274;-81
2021/05/01 09:02:31;;;;;;;11.80;9.77;;;;;;;22.08;53.19;100357.50;5231878;28;20111;-81
2021/05/01 09:05:03;;;;;;;11.50;10.40;;;;;;;22.63;50.65;100354.41;5220979;28;20116;-81
2021/05/01 09:07:35;;;;;;;11.73;9.75;;;;;;;21.30;54.21;100357.09;5219993;28;20025;-80
2021/05/01 09:10:06;;;;;;;13.23;10.73;;;;;;;20.00;55.41;100351.78;5239790;28;20066;-80
2021/05/01 09:12:47;;;;;;;12.48;11.18;;;;;;;20.81;54.90;100355.88;5233837;28;20066;-80
2021/05/01 09:15:17;;;;;;;13.32;10.98;;;;;;;19.13;57.01;100355.00;5234489;28;20025;-80
2021/05/01 09:17:56;;;;;;;15.10;12.43;;;;;;;18.46;60.71;100357.31;5229198;28;20394;-81
2021/05/01 09:20:27;;;;;;;13.43;12.00;;;;;;;18.38;62.73;100357.03;5243470;28;20487;-80
2021/05/01 09:23:06;;;;;;;13.70;12.20;;;;;;;18.51;61.73;100344.63;5223678;28;20078;-82
2021/05/01 09:25:49;;;;;;;12.45;10.85;;;;;;;19.61;60.99;100348.69;5220403;28;20021;-82
2021/05/01 09:28:21;;;;;;;13.20;11.55;;;;;;;18.85;58.81;100350.00;5223097;28;20102;-83
2021/05/01 09:31:07;;;;;;;12.32;10.23;;;;;;;18.36;62.78;100348.38;5237635;28;20052;-82
2021/05/01 09:33:49;;;;;;;11.80;10.55;;;;;;;18.30;66.04;100360.22;5224267;28;20035;-81
2021/05/01 09:36:24;;;;;;;12.85;10.70;;;;;;;17.78;61.52;100361.25;5225020;28;20094;-83
2021/05/01 09:38:57;;;;;;;11.80;10.13;;;;;;;17.87;61.09;100353.56;5242163;28;20051;-81
2021/05/01 09:41:32;;;;;;;13.65;10.93;;;;;;;17.44;63.75;100356.56;5238325;28;20383;-83
2021/05/01 09:44:03;;;;;;;13.10;10.60;;;;;;;17.86;63.62;100354.50;5262687;23;20098;-78
2021/05/01 09:46:36;;;;;;;12.23;10.07;;;;;;;18.12;61.92;100350.03;5232428;28;20028;-78
2021/05/01 09:49:22;;;;;;;12.77;11.38;;;;;;;17.56;62.40;100350.47;5235936;28;20028;-78
2021/05/01 09:51:59;;;;;;;14.02;11.85;;;;;;;17.28;64.16;100342.69;5232270;28;20107;-78
2021/05/01 09:54:31;;;;;;;13.63;11.35;;;;;;;17.02;63.53;100354.09;5212932;28;20025;-78
2021/05/01 09:57:12;;;;;;;14.82;11.98;;;;;;;17.28;65.90;100358.53;5237732;28;20025;-78
2021/05/01 09:59:53;;;;;;;12.80;10.88;;;;;;;17.76;61.17;100349.94;5235120;28;20020;-78
2021/05/01 10:02:36;;;;;;;12.77;10.95;;;;;;;17.53;64.26;100348.88;5235780;28;20438;-78
2021/05/01 10:05:10;;;;;;;12.25;10.07;;;;;;;16.52;63.38;100342.47;5243143;28;20393;-78
2021/05/01 10:07:50;;;;;;;13.32;10.77;;;;;;;15.96;61.95;100343.31;5233171;28;20020;-78
2021/05/01 10:10:21;;;;;;;12.93;11.20;;;;;;;15.28;66.37;100340.44;5234902;28;20028;-77
2021/05/01 10:12:52;;;;;;;12.55;10.45;;;;;;;16.44;62.25;100344.72;5233101;28;20490;-77
2021/05/01 10:15:24;;;;;;;15.50;12.10;;;;;;;16.22;65.10;100339.06;5236297;28;20032;-78
2021/05/01 10:17:54;;;;;;;13.52;11.40;;;;;;;16.09;65.17;100340.78;5232331;28;20018;-77
2021/05/01 10:20:25;;;;;;;14.23;11.77;;;;;;;15.65;64.77;100337.34;5232352;28;20032;-77
2021/05/01 10:23:01;;;;;;;14.73;11.55;;;;;;;15.58;68.95;100339.53;5233005;28;20020;-78
2021/05/01 10:25:33;;;;;;;13.70;11.23;;;;;;;15.38;69.47;100342.47;5236234;28;20639;-78
2021/05/01 10:28:07;;;;;;;13.65;11.77;;;;;;;15.18;68.11;100342.75;5226283;28;20132;-78
2021/05/01 10:36:27;;;;;;;15.13;11.85;;;;;;;14.71;70.13;100332.38;5236415;28;20517;-77
2021/05/01 10:39:01;;;;;;;13.35;11.45;;;;;;;15.71;70.18;100327.28;5220530;28;20047;-77
2021/05/01 10:41:33;;;;;;;17.40;12.80;;;;;;;16.07;67.16;100322.41;5234144;28;20095;-77
2021/05/01 10:44:06;;;;;;;13.63;11.88;;;;;;;16.43;66.96;100325.44;5231494;28;20043;-77
2021/05/01 10:46:39;;;;;;;15.85;11.55;;;;;;;16.69;66.89;100332.50;5238421;28;20033;-77
2021/05/01 10:49:11;;;;;;;13.88;11.20;;;;;;;16.52;67.85;100335.38;5229373;28;20494;-77
2021/05/01 10:51:44;;;;;;;14.77;11.63;;;;;;;16.62;64.09;100328.59;5236185;28;20059;-77
2021/05/01 10:54:16;;;;;;;13.88;11.40;;;;;;;15.97;64.53;100321.28;5230941;28;20063;-78
2021/05/01 10:56:55;;;;;;;13.85;11.20;;;;;;;16.20;65.81;100315.44;5233104;28;20009;-77
2021/05/01 10:59:29;;;;;;;30.67;22.23;;;;;;;15.92;66.01;100312.81;5210474;28;20047;-77
2021/05/01 11:02:01;;;;;;;19.95;14.10;;;;;;;16.40;63.86;100301.03;5231042;28;20020;-77
2021/05/01 11:04:32;;;;;;;16.52;12.00;;;;;;;16.58;63.43;100305.13;5232305;28;20047;-78
2021/05/01 11:07:08;;;;;;;17.52;13.88;;;;;;;16.12;67.12;100303.66;5232429;28;20498;-78
2021/05/01 11:09:41;;;;;;;13.60;11.10;;;;;;;15.64;64.32;100306.66;5229724;28;20136;-78
2021/05/01 11:12:14;;;;;;;14.13;10.90;;;;;;;15.34;64.99;100311.97;5234825;28;20087;-78
2021/05/01 11:14:47;;;;;;;16.10;11.25;;;;;;;15.76;63.21;100317.34;5230018;28;20041;-78
2021/05/01 11:17:32;;;;;;;13.00;10.80;;;;;;;15.20;65.96;100318.97;5233521;28;20025;-77
2021/05/01 11:20:10;;;;;;;15.05;11.77;;;;;;;15.61;67.01;100327.94;5233905;28;20041;-77
2021/05/01 11:22:43;;;;;;;12.98;10.23;;;;;;;15.95;65.72;100322.31;5234818;28;20056;-79
2021/05/01 11:25:15;;;;;;;17.75;15.05;;;;;;;15.79;65.71;100326.81;5240400;28;20492;-77
2021/05/01 11:27:49;;;;;;;13.90;11.82;;;;;;;16.03;66.33;100326.16;5233515;28;20036;-79
2021/05/01 11:30:24;;;;;;;12.68;11.18;;;;;;;15.59;65.00;100328.03;5234087;28;20068;-79
2021/05/01 11:32:55;;;;;;;13.68;12.00;;;;;;;15.96;64.21;100338.03;5236168;28;20029;-78
2021/05/01 11:35:27;;;;;;;12.98;10.50;;;;;;;16.05;63.07;100331.38;5233928;28;20044;-79
2021/05/01 11:38:00;;;;;;;11.38;9.75;;;;;;;15.88;62.36;100332.38;5237951;28;20051;-78